Time;durP1;ratioP1;P1;durP2;ratioP2;P2;SDS_P1;SDS_P2;PMS_P1;PMS_P2;Temp;Humidity;BMP_temperature;BMP_pressure;BME280_temperature;BME280_humidity;BME280_pressure;Samples;Min_cycle;Max_cycle;Signal;HPM_P1;HPM_P2
2022/10/11 00:01:38;;;;;;;5.22;1.70;;;;;;;6.70;64.95;101438.88;5065665;28;20048;-75
2022/10/11 00:04:04;;;;;;;8.63;1.88;;;;;;;6.61;64.51;101434.72;5061925;28;20042;-75
2022/10/11 00:06:29;;;;;;;4.75;1.33;;;;;;;6.55;64.63;101427.41;5066111;28;20103;-74
2022/10/11 00:08:55;;;;;;;6.15;1.35;;;;;;;6.52;64.87;101430.56;5034210;28;20024;-76
2022/10/11 00:11:20;;;;;;;4.90;1.35;;;;;;;6.49;65.41;101436.44;5073264;28;20106;-75
2022/10/11 00:13:46;;;;;;;6.60;1.40;;;;;;;6.40;65.96;101428.50;5074627;28;20107;-75
2022/10/11 00:16:14;;;;;;;4.97;1.30;;;;;;;6.39;65.25;101428.72;5061136;28;20024;-76
2022/10/11 00:18:40;;;;;;;6.78;1.40;;;;;;;6.39;65.87;101432.28;5064433;28;20023;-75
2022/10/11 00:21:10;;;;;;;7.28;1.50;;;;;;;6.36;66.46;101449.00;5062620;28;20048;-75
2022/10/11 00:23:36;;;;;;;5.47;1.50;;;;;;;6.34;66.73;101445.69;5073842;28;20018;-76
2022/10/11 00:26:03;;;;;;;7.28;1.52;;;;;;;6.28;66.19;101436.50;5055081;28;20028;-76
2022/10/11 00:28:29;;;;;;;6.38;1.48;;;;;;;6.30;66.91;101439.00;5065661;28;20013;-76
2022/10/11 00:30:55;;;;;;;7.20;1.80;;;;;;;6.29;66.93;101453.63;5056930;28;20054;-75
2022/10/11 00:33:21;;;;;;;6.63;1.88;;;;;;;6.22;67.02;101450.06;5084749;28;20127;-75
2022/10/11 00:35:47;;;;;;;6.05;1.50;;;;;;;6.14;67.27;101444.88;5058856;28;20144;-76
2022/10/11 00:38:13;;;;;;;5.05;1.30;;;;;;;6.11;66.81;101457.81;5034126;28;20071;-76
2022/10/11 00:40:38;;;;;;;3.10;1.15;;;;;;;6.11;67.26;101457.00;5049386;28;20017;-75
2022/10/11 00:43:15;;;;;;;3.60;1.20;;;;;;;6.13;66.71;101459.50;5069518;28;20055;-75
2022/10/11 00:45:56;;;;;;;5.47;1.20;;;;;;;6.10;66.62;101461.59;5050468;28;20043;-74
2022/10/11 00:48:33;;;;;;;5.88;1.70;;;;;;;6.04;67.95;101473.28;5078762;28;20040;-75
2022/10/11 00:51:01;;;;;;;3.60;1.38;;;;;;;5.95;67.97;101466.38;5069933;28;20005;-76
2022/10/11 00:53:29;;;;;;;4.75;1.42;;;;;;;5.91;67.72;101462.41;5026353;28;20056;-75
2022/10/11 00:56:03;;;;;;;5.97;1.55;;;;;;;5.89;67.84;101464.50;5038358;28;20021;-76
2022/10/11 00:58:32;;;;;;;6.30;1.75;;;;;;;5.89;68.44;101475.38;5040949;28;20048;-77
2022/10/11 01:00:58;;;;;;;6.32;1.30;;;;;;;5.87;67.78;101466.56;5078828;28;20027;-75
2022/10/11 01:03:25;;;;;;;3.05;1.05;;;;;;;5.88;68.64;101458.22;5047513;28;20123;-77
2022/10/11 01:05:51;;;;;;;3.45;0.93;;;;;;;5.86;67.80;101465.75;5063182;28;20019;-77
2022/10/11 01:08:17;;;;;;;5.10;1.63;;;;;;;5.83;67.96;101462.63;5052407;28;20008;-78
2022/10/11 01:10:43;;;;;;;6.70;1.70;;;;;;;5.80;68.34;101454.88;5049488;28;20032;-77
2022/10/11 01:13:23;;;;;;;4.05;1.02;;;;;;;5.79;68.27;101455.94;5065398;28;20036;-77
2022/10/11 01:16:11;;;;;;;5.60;1.40;;;;;;;5.75;68.93;101461.81;5079964;28;20024;-76
2022/10/11 01:18:44;;;;;;;2.90;1.10;;;;;;;5.73;68.82;101472.00;5060346;28;20052;-76
2022/10/11 01:21:21;;;;;;;7.13;1.48;;;;;;;5.73;68.95;101482.88;5071415;28;20107;-77
2022/10/11 01:24:02;;;;;;;4.75;1.55;;;;;;;5.65;69.44;101471.38;5060038;28;20048;-77
2022/10/11 01:27:07;;;;;;;5.30;1.23;;;;;;;5.58;69.46;101449.69;5067765;28;20063;-77
2022/10/11 01:29:35;;;;;;;3.30;1.27;;;;;;;5.57;69.69;101472.41;5061188;28;20021;-76
2022/10/11 01:32:14;;;;;;;5.50;1.55;;;;;;;5.48;69.63;101468.25;5073548;28;20032;-77
2022/10/11 01:34:56;;;;;;;5.18;1.42;;;;;;;5.35;69.93;101459.03;5080853;28;20533;-77
2022/10/11 01:37:45;;;;;;;2.90;1.30;;;;;;;5.39;70.50;101463.00;5063104;28;20030;-74
2022/10/11 01:40:13;;;;;;;5.03;1.52;;;;;;;5.45;70.41;101463.22;5058219;28;20064;-74
2022/10/11 01:42:40;;;;;;;4.78;1.60;;;;;;;5.42;70.57;101469.91;5075692;28;20072;-74
2022/10/11 01:45:15;;;;;;;8.32;1.95;;;;;;;5.43;70.49;101474.25;5069400;28;20537;-74
2022/10/11 01:47:41;;;;;;;6.20;1.60;;;;;;;5.37;71.18;101473.25;5071915;28;20020;-74
2022/10/11 01:50:42;;;;;;;8.88;2.10;;;;;;;5.38;71.65;101468.63;5066373;28;20550;-74
2022/10/11 01:53:38;;;;;;;10.07;2.08;;;;;;;5.37;71.98;101465.09;5049297;28;20478;-74
2022/10/11 01:56:25;;;;;;;9.60;2.00;;;;;;;5.35;71.50;101464.44;5049660;28;20037;-74
2022/10/11 01:59:13;;;;;;;5.53;1.73;;;;;;;5.32;71.59;101454.03;5078498;28;20067;-76
2022/10/11 02:02:03;;;;;;;5.60;1.80;;;;;;;5.31;72.08;101441.50;5071009;28;20066;-75
2022/10/11 02:04:44;;;;;;;6.30;1.67;;;;;;;5.32;72.02;101447.78;5058959;28;20029;-75
2022/10/11 02:07:19;;;;;;;7.38;1.90;;;;;;;5.28;71.70;101447.34;5055781;28;20123;-75
2022/10/11 02:10:20;;;;;;;5.88;1.60;;;;;;;5.21;71.52;101441.91;5066939;28;20012;-76
2022/10/11 02:13:11;;;;;;;2.65;1.13;;;;;;;5.19;72.06;101441.25;5063744;28;20111;-74
2022/10/11 02:15:39;;;;;;;2.72;1.27;;;;;;;5.20;72.53;101455.69;5072678;28;20041;-76
2022/10/11 02:18:12;;;;;;;4.53;1.60;;;;;;;5.19;72.41;101456.72;5067409;28;20016;-75
2022/10/11 02:20:40;;;;;;;4.68;1.25;;;;;;;5.19;72.10;101448.56;5064143;28;20100;-74
2022/10/11 02:23:13;;;;;;;1.27;0.90;;;;;;;5.21;72.15;101443.75;5053179;28;20063;-76
2022/10/11 02:25:39;;;;;;;3.08;1.20;;;;;;;5.24;72.27;101438.78;5066431;28;20454;-76
2022/10/11 02:28:17;;;;;;;6.07;1.65;;;;;;;5.23;72.39;101433.56;5052003;28;20429;-76
2022/10/11 02:30:46;;;;;;;7.05;1.63;;;;;;;5.23;71.99;101439.00;5083428;28;20017;-75
2022/10/11 02:33:16;;;;;;;4.32;1.38;;;;;;;5.20;72.18;101434.81;5068534;28;20051;-76
2022/10/11 02:35:48;;;;;;;3.63;1.27;;;;;;;5.19;72.38;101427.69;5057431;28;20023;-75
2022/10/11 02:38:24;;;;;;;3.30;1.38;;;;;;;5.21;72.84;101428.34;5066586;28;20008;-75
2022/10/11 02:40:56;;;;;;;3.33;1.25;;;;;;;5.22;72.24;101431.88;5073521;28;20365;-76
2022/10/11 02:43:44;;;;;;;5.53;1.33;;;;;;;5.16;72.09;101419.16;5076573;28;20066;-76
2022/10/11 02:46:11;;;;;;;4.15;1.27;;;;;;;5.19;72.34;101416.84;5070298;28;20029;-75
2022/10/11 02:48:39;;;;;;;6.05;1.35;;;;;;;5.23;72.59;101428.16;5065514;28;20032;-74
2022/10/11 02:51:05;;;;;;;4.72;1.10;;;;;;;5.19;72.38;101432.31;5076770;28;20031;-77
2022/10/11 02:53:30;;;;;;;2.10;1.15;;;;;;;5.15;72.01;101426.44;5051279;28;20048;-78
2022/10/11 02:55:56;;;;;;;5.93;1.50;;;;;;;5.17;72.53;101423.53;5058855;28;20028;-78
2022/10/11 02:58:22;;;;;;;5.93;1.40;;;;;;;5.16;73.05;101419.16;5061984;28;20043;-77
2022/10/11 03:00:49;;;;;;;4.30;1.40;;;;;;;5.10;72.51;101407.25;5064961;28;20032;-78
2022/10/11 03:03:15;;;;;;;8.32;1.60;;;;;;;5.02;72.84;101405.59;5086400;28;20044;-77
2022/10/11 03:05:42;;;;;;;3.35;1.27;;;;;;;5.02;72.88;101400.16;5059753;28;20066;-76
2022/10/11 03:08:12;;;;;;;6.35;1.40;;;;;;;5.08;72.61;101409.31;5044769;28;20028;-76
2022/10/11 03:10:39;;;;;;;3.42;1.23;;;;;;;5.09;72.97;101415.59;5071618;28;20024;-75
2022/10/11 03:13:05;;;;;;;3.90;1.42;;;;;;;5.04;73.00;101425.16;5085366;28;20044;-76
2022/10/11 03:15:30;;;;;;;2.28;1.10;;;;;;;5.03;72.61;101420.78;5064437;28;20029;-77
2022/10/11 03:17:56;;;;;;;5.78;1.75;;;;;;;5.03;73.25;101425.38;5065463;28;20032;-76
2022/10/11 03:20:23;;;;;;;5.35;1.95;;;;;;;4.92;73.92;101418.69;5066059;28;20027;-77
2022/10/11 03:22:48;;;;;;;9.40;2.15;;;;;;;4.84;73.90;101418.88;5071075;28;20104;-76
2022/10/11 03:25:14;;;;;;;6.05;2.17;;;;;;;4.74;73.80;101418.41;5073797;28;20058;-77
2022/10/11 03:27:40;;;;;;;4.45;1.67;;;;;;;4.64;73.69;101405.22;5073772;28;20027;-77
2022/10/11 03:30:07;;;;;;;7.93;1.63;;;;;;;4.70;74.29;101423.38;5048153;28;20473;-77
2022/10/11 03:32:33;;;;;;;6.20;1.70;;;;;;;4.69;74.12;101417.13;5072281;28;20119;-77
2022/10/11 03:34:58;;;;;;;6.32;1.70;;;;;;;4.63;74.22;101406.25;5070988;28;20020;-77
2022/10/11 03:37:24;;;;;;;4.32;1.40;;;;;;;4.63;73.58;101407.13;5059401;28;20040;-78
2022/10/11 03:39:50;;;;;;;5.55;1.65;;;;;;;4.61;74.48;101398.34;5057633;28;20021;-78
2022/10/11 03:42:15;;;;;;;2.47;1.20;;;;;;;4.64;74.12;101406.06;5064467;28;20017;-77
2022/10/11 03:44:41;;;;;;;4.57;1.73;;;;;;;4.59;73.76;101400.44;5050767;28;20091;-77
2022/10/11 03:47:07;;;;;;;1.92;1.10;;;;;;;4.60;74.37;101402.09;5060579;28;20037;-77
2022/10/11 03:49:34;;;;;;;3.60;1.35;;;;;;;4.55;73.94;101382.91;5059280;28;20036;-75
2022/10/11 03:52:00;;;;;;;5.57;1.40;;;;;;;4.70;74.19;101407.13;5047469;28;20108;-75
2022/10/11 03:54:25;;;;;;;4.03;1.33;;;;;;;4.74;73.79;101397.56;5060155;28;20100;-76
2022/10/11 03:56:51;;;;;;;12.90;1.60;;;;;;;4.72;74.23;101395.06;5023522;28;20033;-76
2022/10/11 03:59:17;;;;;;;5.82;1.40;;;;;;;4.76;74.29;101416.31;5054146;28;20035;-75
2022/10/11 04:01:42;;;;;;;5.82;2.33;;;;;;;4.70;74.52;101412.53;5049661;28;20566;-76
2022/10/11 04:04:07;;;;;;;9.48;2.20;;;;;;;4.60;75.04;101412.94;5065808;28;20024;-77
2022/10/11 04:06:33;;;;;;;10.20;2.22;;;;;;;4.55;75.21;101427.06;5081872;28;20029;-76
2022/10/11 04:09:00;;;;;;;12.85;2.03;;;;;;;4.43;75.78;101433.28;5049378;28;20040;-75
2022/10/11 04:11:28;;;;;;;3.97;1.52;;;;;;;4.23;75.64;101434.00;5073763;28;20021;-75
2022/10/11 04:13:53;;;;;;;5.85;1.75;;;;;;;3.96;76.07;101428.41;5065445;28;20037;-76
2022/10/11 04:16:20;;;;;;;9.80;2.33;;;;;;;3.79;76.31;101432.44;5033363;28;20405;-75
2022/10/11 04:18:45;;;;;;;3.10;1.45;;;;;;;3.65;76.58;101437.75;5040755;28;20051;-76
2022/10/11 04:21:11;;;;;;;4.88;1.83;;;;;;;3.53;76.14;101433.91;5064121;28;20033;-77
2022/10/11 04:23:36;;;;;;;4.20;1.40;;;;;;;3.47;76.67;101434.69;5038944;28;20077;-75
2022/10/11 04:26:06;;;;;;;6.88;2.03;;;;;;;3.47;76.65;101440.09;5051107;28;20039;-75
2022/10/11 04:28:32;;;;;;;6.40;2.10;;;;;;;3.47;76.01;101442.78;5081179;28;20024;-73
2022/10/11 04:30:58;;;;;;;3.90;1.40;;;;;;;3.42;76.49;101439.84;5061963;28;20031;-74
2022/10/11 04:33:23;;;;;;;4.03;1.27;;;;;;;3.40;76.62;101433.78;5065074;28;20393;-74
2022/10/11 04:35:53;;;;;;;3.08;1.42;;;;;;;3.40;76.60;101433.78;5064759;28;20045;-72
2022/10/11 04:38:18;;;;;;;4.00;1.60;;;;;;;3.43;76.37;101444.19;5068965;28;20027;-72
2022/10/11 04:40:44;;;;;;;4.80;1.30;;;;;;;3.44;76.28;101437.78;5088109;28;20024;-73
2022/10/11 04:43:09;;;;;;;3.47;1.27;;;;;;;3.38;76.51;101435.84;5016228;28;20038;-74
2022/10/11 04:45:35;;;;;;;3.30;1.20;;;;;;;3.39;76.61;101429.38;5040897;28;20028;-74
2022/10/11 04:48:07;;;;;;;4.70;1.85;;;;;;;3.39;76.56;101437.50;5052229;28;20501;-75
2022/10/11 04:50:33;;;;;;;3.97;1.48;;;;;;;3.36;76.40;101432.47;5050181;28;20029;-74
2022/10/11 04:52:59;;;;;;;4.97;1.60;;;;;;;3.40;77.10;101450.00;5061614;28;20020;-74
2022/10/11 04:55:24;;;;;;;7.72;2.08;;;;;;;3.37;77.28;101462.03;5027685;28;20028;-74
2022/10/11 04:57:50;;;;;;;7.95;2.45;;;;;;;3.29;77.28;101452.19;5042016;28;20032;-76
2022/10/11 05:00:15;;;;;;;5.20;1.90;;;;;;;3.17;77.86;101445.63;5046164;28;20367;-76
2022/10/11 05:02:41;;;;;;;4.60;1.70;;;;;;;3.28;77.75;101466.72;5079579;28;20052;-76
2022/10/11 05:05:07;;;;;;;5.75;1.63;;;;;;;3.23;77.92;101458.38;5071024;28;20041;-75
2022/10/11 05:07:33;;;;;;;6.20;2.10;;;;;;;3.25;78.13;101463.59;5034178;28;20033;-73
2022/10/11 05:09:58;;;;;;;7.03;1.80;;;;;;;3.25;78.14;101464.41;5061631;28;20028;-74
2022/10/11 05:12:24;;;;;;;3.80;1.70;;;;;;;3.27;77.67;101456.97;5079329;28;20079;-74
2022/10/11 05:14:49;;;;;;;5.00;1.83;;;;;;;3.31;78.10;101460.97;5065545;28;20032;-74
2022/10/11 05:17:15;;;;;;;3.38;1.40;;;;;;;3.36;78.04;101470.34;5046368;28;20490;-75
2022/10/11 05:19:40;;;;;;;5.22;1.65;;;;;;;3.33;78.22;101460.78;5058782;28;20162;-73
2022/10/11 05:22:05;;;;;;;3.08;1.40;;;;;;;3.35;78.53;101474.09;5072481;28;20036;-74
2022/10/11 05:24:31;;;;;;;8.73;2.22;;;;;;;3.28;78.05;101474.84;5061477;28;20032;-75
2022/10/11 05:26:56;;;;;;;9.00;2.10;;;;;;;3.20;78.95;101469.56;5058117;28;20091;-73
2022/10/11 05:29:22;;;;;;;4.38;2.00;;;;;;;3.17;78.92;101467.25;5044032;28;20032;-74
2022/10/11 05:35:08;;;;;;;5.82;2.13;;;;;;;3.11;78.91;101458.03;5069559;28;20033;-75
2022/10/11 05:37:34;;;;;;;4.82;1.55;;;;;;;3.27;79.03;101478.59;5063182;28;20041;-74
2022/10/11 05:40:00;;;;;;;4.65;1.73;;;;;;;3.24;78.49;101478.97;5037390;28;20021;-76
2022/10/11 05:42:25;;;;;;;2.58;1.50;;;;;;;3.26;79.07;101482.31;5054467;28;20041;-75
2022/10/11 05:44:50;;;;;;;3.78;1.40;;;;;;;3.28;79.06;101490.22;5067459;28;20027;-74
2022/10/11 05:47:16;;;;;;;4.00;1.65;;;;;;;3.26;78.41;101487.72;5054091;28;20031;-74
2022/10/11 05:49:42;;;;;;;3.28;1.73;;;;;;;3.23;78.57;101490.00;5058931;28;20082;-73
2022/10/11 05:52:09;;;;;;;4.63;1.73;;;;;;;3.24;78.91;101489.78;5059325;28;20032;-73
2022/10/11 05:54:34;;;;;;;2.95;1.65;;;;;;;3.23;79.03;101492.69;5021294;28;20025;-74
2022/10/11 05:57:00;;;;;;;3.40;1.58;;;;;;;3.21;79.08;101479.34;5085790;28;20599;-74
2022/10/11 05:59:25;;;;;;;6.55;2.20;;;;;;;3.16;79.08;101480.97;5068781;28;20071;-75
2022/10/11 06:01:51;;;;;;;3.75;1.70;;;;;;;3.12;79.66;101480.50;5020149;28;20143;-75
2022/10/11 06:04:17;;;;;;;6.05;2.17;;;;;;;3.07;79.43;101491.06;5059361;28;20058;-75
2022/10/11 06:06:43;;;;;;;5.53;2.20;;;;;;;3.03;79.23;101509.50;5054173;28;20087;-75
2022/10/11 06:09:35;;;;;;;4.38;1.95;;;;;;;3.01;80.12;101502.59;5046323;28;20398;-76
2022/10/11 06:12:08;;;;;;;4.68;2.15;;;;;;;2.99;80.16;101502.78;5077801;28;20033;-74
2022/10/11 06:14:37;;;;;;;2.15;1.40;;;;;;;2.88;79.69;101479.81;5085819;28;20055;-74
2022/10/11 06:17:19;;;;;;;2.90;1.63;;;;;;;2.93;79.98;101503.56;5083875;28;20028;-75
2022/10/11 06:19:54;;;;;;;5.60;1.80;;;;;;;2.97;79.76;101508.38;5064109;28;20035;-75
2022/10/11 06:22:28;;;;;;;7.53;1.90;;;;;;;2.95;80.05;101507.75;5077440;28;20032;-77
2022/10/11 06:25:08;;;;;;;5.45;2.35;;;;;;;2.88;79.64;101500.59;5064902;28;20111;-75
2022/10/11 06:27:43;;;;;;;5.82;1.70;;;;;;;2.96;79.55;101508.56;5063561;28;20054;-75
2022/10/11 06:30:12;;;;;;;5.65;2.47;;;;;;;2.87;80.01;101488.09;5063668;28;20033;-75
2022/10/11 06:32:39;;;;;;;4.00;1.88;;;;;;;2.91;79.72;101498.34;5087321;28;20032;-76
2022/10/11 06:35:11;;;;;;;6.28;2.08;;;;;;;2.96;80.30;101517.53;5086239;28;20040;-75
2022/10/11 06:37:36;;;;;;;5.78;2.70;;;;;;;3.00;79.67;101514.47;5059494;28;20055;-75
2022/10/11 06:40:02;;;;;;;3.92;2.00;;;;;;;3.05;80.14;101514.72;5059131;28;20471;-74
2022/10/11 06:42:27;;;;;;;3.75;1.55;;;;;;;3.08;79.78;101517.03;5055331;28;20395;-74
2022/10/11 06:44:53;;;;;;;4.20;1.45;;;;;;;3.09;79.79;101524.13;5054669;28;20033;-74
2022/10/11 06:47:18;;;;;;;4.55;1.45;;;;;;;3.04;80.14;101513.88;5044399;28;20076;-71
2022/10/11 06:49:47;;;;;;;2.53;1.23;;;;;;;2.96;80.06;101514.84;5076945;28;20021;-71
2022/10/11 06:52:12;;;;;;;2.33;1.17;;;;;;;2.85;80.36;101507.22;5071303;28;20029;-71
2022/10/11 06:54:38;;;;;;;2.03;1.08;;;;;;;2.86;80.54;101519.69;5065791;28;20522;-71
2022/10/11 06:57:03;;;;;;;0.85;0.75;;;;;;;2.81;80.38;101518.56;5053626;28;22600;-71
2022/10/11 06:59:32;;;;;;;1.77;1.02;;;;;;;2.74;80.61;101513.06;5057065;28;20051;-73
2022/10/11 07:01:57;;;;;;;1.20;0.77;;;;;;;2.73;81.05;101517.66;5071870;28;20090;-70
2022/10/11 07:04:23;;;;;;;1.45;0.77;;;;;;;2.81;80.49;101532.09;5034362;28;20029;-71
2022/10/11 07:06:48;;;;;;;0.90;0.70;;;;;;;2.81;81.14;101523.97;5080297;28;20032;-70
2022/10/11 07:09:14;;;;;;;1.38;0.57;;;;;;;2.82;81.02;101526.50;5065192;28;20016;-71
2022/10/11 07:12:04;;;;;;;2.42;0.80;;;;;;;2.83;80.81;101520.03;5075058;28;20035;-72
2022/10/11 07:14:29;;;;;;;0.90;0.80;;;;;;;2.94;80.74;101527.69;5057722;28;20029;-71
2022/10/11 07:16:54;;;;;;;1.15;0.63;;;;;;;3.07;80.90;101515.38;5068972;28;20110;-72
2022/10/11 07:19:20;;;;;;;3.70;1.23;;;;;;;3.27;80.94;101521.84;5070372;28;20115;-71
2022/10/11 07:21:45;;;;;;;7.60;2.08;;;;;;;3.73;80.12;101522.53;5058225;28;20040;-71
2022/10/11 07:24:11;;;;;;;2.90;1.88;;;;;;;4.64;78.84;101533.41;5073524;28;20072;-72
2022/10/11 07:26:36;;;;;;;9.40;3.13;;;;;;;5.83;74.83;101534.03;5041283;28;20056;-72
2022/10/11 07:29:02;;;;;;;5.22;2.80;;;;;;;7.34;69.01;101531.44;5077823;28;20020;-71
2022/10/11 07:31:28;;;;;;;5.78;2.58;;;;;;;8.74;64.23;101537.69;5076749;28;20032;-71
2022/10/11 07:33:53;;;;;;;3.00;1.73;;;;;;;10.16;60.24;101535.53;5092295;28;20024;-70
2022/10/11 07:36:19;;;;;;;6.15;2.00;;;;;;;11.42;56.77;101536.94;5071580;28;20759;-72
2022/10/11 07:39:06;;;;;;;3.17;1.50;;;;;;;12.89;53.97;101532.44;5073976;28;20087;-72
2022/10/11 07:41:31;;;;;;;2.25;1.40;;;;;;;14.18;50.07;101547.56;5075217;28;20539;-72
2022/10/11 07:43:57;;;;;;;2.67;1.38;;;;;;;15.12;48.04;101550.66;5018565;28;20045;-71
2022/10/11 07:46:28;;;;;;;2.50;1.70;;;;;;;16.07;46.51;101543.16;5068071;28;20043;-71
2022/10/11 07:49:03;;;;;;;4.30;1.58;;;;;;;16.93;44.39;101533.91;5047685;28;20033;-73
2022/10/11 07:51:45;;;;;;;4.18;2.08;;;;;;;17.71;43.52;101544.56;5085737;28;20036;-74
2022/10/11 07:54:14;;;;;;;2.53;1.38;;;;;;;18.75;41.87;101556.41;5050253;28;20062;-73
2022/10/11 07:56:47;;;;;;;1.45;1.10;;;;;;;19.62;40.51;101560.88;5087645;28;20054;-72
2022/10/11 07:59:22;;;;;;;2.05;1.08;;;;;;;20.39;38.90;101556.88;5076753;28;20037;-73
2022/10/11 08:01:51;;;;;;;5.88;1.85;;;;;;;21.08;37.69;101545.06;5067905;28;20132;-73
2022/10/11 08:04:27;;;;;;;1.77;1.13;;;;;;;21.61;36.73;101535.28;5049957;28;20033;-74
2022/10/11 08:06:53;;;;;;;1.38;0.80;;;;;;;22.67;35.64;101576.63;5088142;28;20039;-74
2022/10/11 08:09:21;;;;;;;2.38;1.10;;;;;;;23.48;34.66;101566.25;5078506;28;20045;-74
2022/10/11 08:11:46;;;;;;;1.63;0.73;;;;;;;24.45;32.86;101560.63;5071769;28;20088;-73
2022/10/11 08:14:12;;;;;;;0.80;0.50;;;;;;;25.27;32.16;101566.84;5048385;28;20056;-72
2022/10/11 08:16:38;;;;;;;1.90;0.98;;;;;;;26.13;30.89;101585.34;5080211;28;20387;-73
2022/10/11 08:19:05;;;;;;;2.60;0.93;;;;;;;26.88;30.10;101587.16;5064869;28;20028;-72
2022/10/11 08:21:30;;;;;;;1.90;1.13;;;;;;;27.36;29.62;101578.31;5073617;28;20479;-71
2022/10/11 08:23:56;;;;;;;2.05;1.05;;;;;;;27.84;28.90;101584.97;5054519;28;20062;-72
2022/10/11 08:26:21;;;;;;;2.65;1.00;;;;;;;28.42;27.42;101576.19;5057548;28;20048;-72
2022/10/11 08:28:47;;;;;;;2.42;0.93;;;;;;;29.02;27.20;101578.94;5086330;28;20123;-72
2022/10/11 08:31:14;;;;;;;4.00;1.45;;;;;;;29.06;26.51;101579.84;5041251;28;20021;-71
2022/10/11 08:33:40;;;;;;;3.60;1.55;;;;;;;29.45;26.17;101581.16;5074766;28;20528;-72
2022/10/11 08:36:47;;;;;;;;;;;;;;;;;;;;;
2022/10/11 08:39:49;;;;;;;2.75;1.27;;;;;;;30.58;24.82;101574.59;4995210;28;20093;-72
2022/10/11 08:42:45;;;;;;;2.22;1.10;;;;;;;31.40;24.21;101566.63;5035006;28;20045;-73
2022/10/11 08:45:47;;;;;;;4.82;1.65;;;;;;;31.79;23.72;101576.84;5065631;28;20035;-73
2022/10/11 08:49:45;;;;;;;;;;;;;;;;;;;;;
2022/10/11 08:52:03;;;;;;;3.80;1.30;;;;;;;33.27;22.55;101570.63;5006314;28;20037;-72
2022/10/11 08:54:53;;;;;;;5.65;1.58;;;;;;;34.00;21.45;101574.63;5072126;28;20039;-71
2022/10/11 08:57:22;;;;;;;2.53;1.35;;;;;;;34.66;21.12;101559.34;5073238;28;20055;-72
2022/10/11 08:59:52;;;;;;;2.92;1.60;;;;;;;35.24;20.47;101566.59;5060845;28;20025;-72
2022/10/11 09:02:37;;;;;;;5.88;2.53;;;;;;;35.49;19.81;101577.13;5074876;28;20442;-71
2022/10/11 09:05:04;;;;;;;4.75;2.60;;;;;;;35.78;19.29;101565.63;5057237;28;20048;-72
2022/10/11 09:07:45;;;;;;;4.47;2.15;;;;;;;36.41;18.99;101573.44;5070677;28;20050;-72
2022/10/11 09:10:28;;;;;;;6.07;2.35;;;;;;;36.83;18.40;101577.19;5066308;28;20612;-71
2022/10/11 09:13:33;;;;;;;4.60;2.20;;;;;;;37.62;18.06;101576.38;5086098;28;20033;-71
2022/10/11 09:16:21;;;;;;;3.75;2.25;;;;;;;38.14;17.72;101580.16;5084864;28;20028;-71
2022/10/11 09:19:04;;;;;;;5.75;2.03;;;;;;;38.46;17.29;101581.75;5053502;28;20275;-72
2022/10/11 09:21:48;;;;;;;3.92;1.85;;;;;;;39.00;17.08;101583.72;5073674;28;20028;-71
2022/10/11 09:24:48;;;;;;;2.33;1.55;;;;;;;39.70;16.95;101581.97;5066592;28;20031;-72
2022/10/11 09:27:28;;;;;;;3.05;1.85;;;;;;;40.36;16.50;101577.19;5082845;28;20021;-72
2022/10/11 09:30:02;;;;;;;7.28;2.83;;;;;;;40.91;16.01;101582.44;5083199;28;20056;-71
2022/10/11 09:32:41;;;;;;;3.13;1.83;;;;;;;41.34;15.40;101587.00;5084709;28;20031;-71
2022/10/11 09:35:21;;;;;;;4.72;1.80;;;;;;;41.60;14.98;101581.34;5053006;28;20012;-73
2022/10/11 09:38:08;;;;;;;3.08;1.83;;;;;;;41.86;14.33;101577.25;5076477;28;20660;-71
2022/10/11 09:40:58;;;;;;;6.03;2.28;;;;;;;41.72;14.06;101577.66;5048429;28;20737;-71
2022/10/11 09:43:24;;;;;;;5.03;2.10;;;;;;;42.38;14.08;101577.31;5087899;28;20032;-72
2022/10/11 09:45:49;;;;;;;3.53;1.45;;;;;;;42.86;14.04;101568.69;5066063;28;20029;-71
2022/10/11 09:48:21;;;;;;;4.15;1.70;;;;;;;43.28;13.35;101564.75;5061221;28;20027;-73
2022/10/11 09:50:49;;;;;;;7.55;2.15;;;;;;;43.53;12.48;101573.28;5069134;28;20017;-73
2022/10/11 09:53:14;;;;;;;5.93;1.88;;;;;;;43.85;12.55;101571.22;5076823;28;20016;-71
2022/10/11 09:55:52;;;;;;;7.38;2.03;;;;;;;43.47;12.92;101575.16;5080292;28;20032;-72
2022/10/11 09:58:29;;;;;;;4.97;1.75;;;;;;;43.32;12.32;101571.19;5071346;28;20050;-72
2022/10/11 10:01:04;;;;;;;4.32;1.73;;;;;;;43.89;12.23;101568.22;5077512;28;20074;-72
2022/10/11 10:04:06;;;;;;;3.22;1.67;;;;;;;45.06;11.54;101574.47;5039094;28;20060;-72
2022/10/11 10:06:32;;;;;;;6.22;2.30;;;;;;;45.33;11.04;101567.06;5044507;28;20083;-71
2022/10/11 10:09:29;;;;;;;3.67;1.73;;;;;;;44.97;11.57;101564.50;5066531;28;20025;-73
2022/10/11 10:11:55;;;;;;;7.70;2.13;;;;;;;44.95;11.02;101566.28;5079474;28;20040;-72
2022/10/11 10:14:29;;;;;;;5.45;2.25;;;;;;;45.42;10.96;101567.84;5057377;28;20078;-73
2022/10/11 10:17:14;;;;;;;5.70;1.83;;;;;;;45.70;10.76;101570.69;5073483;28;20036;-74
2022/10/11 10:20:00;;;;;;;5.47;1.83;;;;;;;46.18;10.30;101558.47;5056691;28;20036;-72
2022/10/11 10:22:33;;;;;;;3.22;1.52;;;;;;;46.74;10.30;101553.16;5064108;28;20056;-72
2022/10/11 10:25:02;;;;;;;4.57;1.67;;;;;;;47.71;9.52;101552.88;5079870;28;20032;-72
2022/10/11 10:27:30;;;;;;;4.95;1.60;;;;;;;48.27;9.51;101553.00;5055506;28;20115;-72
2022/10/11 10:30:07;;;;;;;3.72;1.60;;;;;;;48.83;9.70;101549.28;5080155;28;20100;-74
2022/10/11 10:32:44;;;;;;;4.50;1.73;;;;;;;48.97;9.22;101539.66;5069870;28;20028;-72
2022/10/11 10:35:20;;;;;;;6.32;2.20;;;;;;;49.22;8.97;101543.91;5058264;28;20016;-74
2022/10/11 10:37:58;;;;;;;6.85;2.33;;;;;;;48.95;8.91;101539.38;5050804;28;20031;-72
2022/10/11 10:40:39;;;;;;;7.93;2.08;;;;;;;49.36;8.30;101536.38;5066900;28;20055;-73
2022/10/11 10:43:04;;;;;;;5.45;2.28;;;;;;;49.64;8.17;101535.84;5086543;28;20030;-71
2022/10/11 10:45:49;;;;;;;5.45;2.17;;;;;;;50.07;8.11;101527.16;5070201;28;20055;-72
2022/10/11 10:48:39;;;;;;;4.38;1.90;;;;;;;50.54;8.07;101538.50;5069388;28;20025;-73
2022/10/11 10:51:17;;;;;;;3.72;1.30;;;;;;;51.30;7.85;101533.97;5071025;28;20016;-72
2022/10/11 10:54:08;;;;;;;5.07;1.83;;;;;;;51.09;7.65;101523.88;5061814;28;20032;-74
2022/10/11 10:56:44;;;;;;;3.53;1.70;;;;;;;51.42;7.75;101531.06;5055331;28;20036;-73
2022/10/11 10:59:37;;;;;;;4.93;1.50;;;;;;;51.27;7.70;101534.22;5070372;28;20035;-72
2022/10/11 11:02:22;;;;;;;4.10;1.60;;;;;;;48.50;8.07;101518.50;5052859;28;20036;-72
2022/10/11 11:05:24;;;;;;;3.65;1.60;;;;;;;48.36;8.51;101515.16;5058757;28;20024;-73
2022/10/11 11:08:14;;;;;;;5.15;2.05;;;;;;;49.90;7.95;101514.59;5069301;28;20047;-73
2022/10/11 11:11:27;;;;;;;4.78;2.28;;;;;;;50.94;7.42;101509.56;5076560;28;20000;-72
2022/10/11 11:14:03;;;;;;;3.50;1.57;;;;;;;52.12;6.72;101523.31;5070490;28;20041;-71
2022/10/11 11:16:34;;;;;;;2.63;1.48;;;;;;;51.12;6.89;101523.63;5065975;28;20115;-73
2022/10/11 11:19:05;;;;;;;4.45;1.98;;;;;;;50.86;7.26;101514.28;5061804;28;20436;-72
2022/10/11 11:21:47;;;;;;;5.85;2.10;;;;;;;51.54;6.46;101517.28;5069055;28;20033;-72
2022/10/11 11:24:47;;;;;;;6.43;2.50;;;;;;;50.91;6.31;101504.75;5065848;28;20069;-74
2022/10/11 11:27:37;;;;;;;3.72;1.90;;;;;;;51.87;6.71;101515.66;5068871;28;20043;-74
2022/10/11 11:30:35;;;;;;;3.92;2.03;;;;;;;52.92;5.97;101503.31;5079508;28;20051;-74
2022/10/11 11:33:37;;;;;;;5.53;2.15;;;;;;;53.61;5.47;101504.34;5070497;28;20029;-72
2022/10/11 11:36:17;;;;;;;3.08;1.73;;;;;;;51.64;6.62;101504.03;5071159;28;20036;-74
2022/10/11 11:38:53;;;;;;;3.13;1.42;;;;;;;50.44;6.91;101494.31;5067726;28;20673;-73
2022/10/11 11:41:29;;;;;;;2.42;1.30;;;;;;;50.71;7.09;101489.13;5079578;28;20021;-73
2022/10/11 11:44:23;;;;;;;3.75;1.73;;;;;;;51.16;6.64;101495.03;5079786;28;20032;-74
2022/10/11 11:47:00;;;;;;;2.88;1.40;;;;;;;51.08;6.50;101487.34;5080808;28;20047;-73
2022/10/11 11:49:39;;;;;;;3.53;1.70;;;;;;;50.15;6.84;101472.25;5070321;28;20040;-74
2022/10/11 11:52:06;;;;;;;4.10;1.90;;;;;;;49.42;7.13;101469.63;5062392;28;20059;-73
2022/10/11 11:54:50;;;;;;;3.92;1.60;;;;;;;48.88;7.37;101461.47;5060935;28;20032;-74
2022/10/11 11:57:31;;;;;;;3.50;1.45;;;;;;;48.52;7.77;101464.50;5073335;28;20059;-72
2022/10/11 12:00:14;;;;;;;3.63;1.38;;;;;;;48.38;7.52;101469.06;5072134;28;20028;-73
2022/10/11 12:02:42;;;;;;;3.05;1.33;;;;;;;47.79;7.72;101475.88;5073055;28;20067;-73
2022/10/11 12:05:10;;;;;;;2.75;1.30;;;;;;;46.89;7.98;101472.19;5053976;28;20040;-73